createdAt,value
2017-12-20T00:00:13.754Z,101835.89
2017-12-20T00:01:20.379Z,101834.53
2017-12-20T00:02:26.283Z,101834.53
2017-12-20T00:03:32.104Z,101835.83
2017-12-20T00:04:38.682Z,101834.53
2017-12-20T00:05:44.430Z,101839.80
2017-12-20T00:06:50.233Z,101835.03
2017-12-20T00:07:55.993Z,101828.12
2017-12-20T00:09:03.025Z,101832.52
2017-12-20T00:10:08.787Z,101832.09
2017-12-20T00:11:15.445Z,101831.27
2017-12-20T00:12:21.768Z,101826.54
2017-12-20T00:13:27.684Z,101823.95
2017-12-20T00:14:33.531Z,101820.95
2017-12-20T00:15:39.278Z,101818.83
2017-12-20T00:16:45.016Z,101815.36
2017-12-20T00:17:50.745Z,101815.36
2017-12-20T00:18:56.204Z,101816.07
2017-12-20T00:20:01.966Z,101818.72
2017-12-20T00:21:07.699Z,101815.27
2017-12-20T00:22:14.178Z,101823.52
2017-12-20T00:23:19.929Z,101822.65
2017-12-20T00:24:27.149Z,101821.34
2017-12-20T00:25:32.922Z,101820.03
2017-12-20T00:26:38.653Z,101822.63
2017-12-20T00:27:44.397Z,101817.38
2017-12-20T00:28:50.137Z,101816.46
2017-12-20T00:29:55.863Z,101816.45
2017-12-20T00:31:01.630Z,101814.72
2017-12-20T00:32:07.381Z,101809.50
2017-12-20T00:33:13.134Z,101807.33
2017-12-20T00:34:18.873Z,101810.81
2017-12-20T00:35:24.609Z,101808.25
2017-12-20T00:36:30.395Z,101812.16
2017-12-20T00:37:36.149Z,101815.63
2017-12-20T00:38:41.916Z,101811.73
2017-12-20T00:39:47.641Z,101814.78
2017-12-20T00:40:53.497Z,101812.17
2017-12-20T00:41:59.313Z,101811.72
2017-12-20T00:43:05.088Z,101812.59
2017-12-20T00:44:09.996Z,101819.11
2017-12-20T00:45:15.729Z,101816.07
2017-12-20T00:46:21.489Z,101818.23
2017-12-20T00:47:27.252Z,101824.32
2017-12-20T00:48:32.991Z,101829.53
2017-12-20T00:49:38.780Z,101827.36
2017-12-20T00:50:44.620Z,101829.86
2017-12-20T00:51:50.372Z,101831.11
2017-12-20T00:52:56.144Z,101829.42
2017-12-20T00:54:01.880Z,101827.69
2017-12-20T00:55:07.655Z,101832.47
2017-12-20T00:56:13.409Z,101829.86
2017-12-20T00:57:19.900Z,101831.99
2017-12-20T00:58:25.671Z,101829.43
2017-12-20T00:59:31.402Z,101826.83
2017-12-20T01:00:36.929Z,101824.21
2017-12-20T01:01:42.684Z,101828.51
2017-12-20T01:02:48.538Z,101829.77
2017-12-20T01:03:54.328Z,101823.24
2017-12-20T01:05:00.813Z,101825.47
2017-12-20T01:06:06.230Z,101827.25
2017-12-20T01:07:11.634Z,101827.25
2017-12-20T01:08:17.479Z,101834.26
2017-12-20T01:09:24.029Z,101828.66
2017-12-20T01:10:29.925Z,101826.94
2017-12-20T01:11:35.657Z,101829.97
2017-12-20T01:12:41.398Z,101823.03
2017-12-20T01:13:47.147Z,101820.03
2017-12-20T01:14:52.911Z,101823.95
2017-12-20T01:15:58.684Z,101819.60
2017-12-20T01:17:04.417Z,101829.16
2017-12-20T01:18:10.148Z,101828.72
2017-12-20T01:19:15.901Z,101831.37
2017-12-20T01:20:21.665Z,101825.72
2017-12-20T01:21:27.637Z,101826.59
2017-12-20T01:22:33.366Z,101826.60
2017-12-20T01:23:39.095Z,101824.42
2017-12-20T01:24:45.621Z,101825.30
2017-12-20T01:25:51.491Z,101830.51
2017-12-20T01:26:58.017Z,101832.25
2017-12-20T01:28:03.838Z,101838.37
2017-12-20T01:29:09.591Z,101835.28
2017-12-20T01:30:15.348Z,101840.53
2017-12-20T01:31:21.118Z,101845.70
2017-12-20T01:32:27.640Z,101846.57
2017-12-20T01:33:33.393Z,101843.09
2017-12-20T01:34:39.148Z,101846.57
2017-12-20T01:35:45.679Z,101841.80
2017-12-20T01:36:51.422Z,101846.58
2017-12-20T01:37:57.168Z,101846.14
2017-12-20T01:39:02.897Z,101841.36
2017-12-20T01:40:08.652Z,101846.57
2017-12-20T01:41:13.730Z,101843.96
2017-12-20T01:42:18.845Z,101843.09
2017-12-20T01:43:25.351Z,101837.88
2017-12-20T01:44:31.094Z,101844.39
2017-12-20T01:45:36.523Z,101837.89
2017-12-20T01:46:42.255Z,101838.36
2017-12-20T01:47:48.033Z,101833.16
2017-12-20T01:48:54.549Z,101827.52
2017-12-20T01:50:00.273Z,101827.98
2017-12-20T01:51:05.348Z,101823.22
2017-12-20T01:52:11.095Z,101830.17
2017-12-20T01:53:16.868Z,101824.56
2017-12-20T01:54:23.353Z,101822.84
2017-12-20T01:55:29.320Z,101830.22
2017-12-20T01:56:34.515Z,101826.78
2017-12-20T01:57:39.911Z,101825.48
2017-12-20T01:58:45.011Z,101820.70
2017-12-20T01:59:50.732Z,101820.28
2017-12-20T02:00:56.473Z,101826.35
2017-12-20T02:02:02.202Z,101826.35
2017-12-20T02:03:07.971Z,101828.95
2017-12-20T02:04:13.748Z,101825.05
2017-12-20T02:05:20.268Z,101818.97
2017-12-20T02:06:25.993Z,101823.31
2017-12-20T02:07:32.401Z,101821.14
2017-12-20T02:08:38.154Z,101821.14
2017-12-20T02:09:43.902Z,101823.31
2017-12-20T02:10:50.422Z,101813.77
2017-12-20T02:11:56.171Z,101811.16
2017-12-20T02:13:01.897Z,101808.56
2017-12-20T02:14:07.623Z,101805.95
2017-12-20T02:15:13.388Z,101805.52
2017-12-20T02:16:19.140Z,101802.92
2017-12-20T02:17:24.869Z,101801.17
2017-12-20T02:18:30.611Z,101808.98
2017-12-20T02:19:35.696Z,101811.98
2017-12-20T02:20:41.137Z,101812.85
2017-12-20T02:21:46.255Z,101812.85
2017-12-20T02:22:51.331Z,101808.94
2017-12-20T02:23:56.744Z,101818.06
2017-12-20T02:25:01.821Z,101815.89
2017-12-20T02:26:08.345Z,101814.59
2017-12-20T02:27:13.524Z,101822.41
2017-12-20T02:28:18.593Z,101819.80
2017-12-20T02:29:23.681Z,101821.97
2017-12-20T02:30:28.749Z,101821.48
2017-12-20T02:31:34.199Z,101815.84
2017-12-20T02:32:40.060Z,101820.61
2017-12-20T02:33:45.918Z,101818.88
2017-12-20T02:34:51.339Z,101816.71
2017-12-20T02:35:56.986Z,101824.56
2017-12-20T02:37:02.447Z,101824.09
2017-12-20T02:38:08.033Z,101820.22
2017-12-20T02:39:13.120Z,101825.44
2017-12-20T02:40:18.865Z,101829.73
2017-12-20T02:41:24.260Z,101835.77
2017-12-20T02:42:30.437Z,101834.03
2017-12-20T02:43:35.276Z,101835.77
2017-12-20T02:44:40.362Z,101830.12
2017-12-20T02:45:46.114Z,101837.50
2017-12-20T02:46:51.210Z,101838.80
2017-12-20T02:47:56.458Z,101842.23
2017-12-20T02:49:01.534Z,101840.92
2017-12-20T02:50:06.622Z,101842.66
2017-12-20T02:51:12.272Z,101842.66
2017-12-20T02:52:17.354Z,101837.45
2017-12-20T02:53:22.999Z,101841.75
2017-12-20T02:54:28.310Z,101846.95
2017-12-20T02:55:34.478Z,101841.75
2017-12-20T02:56:40.642Z,101842.61
2017-12-20T02:57:45.717Z,101843.48
2017-12-20T02:58:50.814Z,101840.88
2017-12-20T02:59:56.249Z,101839.58
2017-12-20T03:01:01.993Z,101841.75
2017-12-20T03:02:07.419Z,101841.75
2017-12-20T03:03:12.513Z,101837.84
2017-12-20T03:04:18.395Z,101833.11
2017-12-20T03:05:24.162Z,101838.31
2017-12-20T03:06:29.565Z,101828.33
2017-12-20T03:07:34.988Z,101831.38
2017-12-20T03:08:40.385Z,101832.68
2017-12-20T03:09:45.956Z,101835.33
2017-12-20T03:10:51.026Z,101837.50
2017-12-20T03:11:56.107Z,101830.99
2017-12-20T03:13:01.176Z,101838.41
2017-12-20T03:14:06.025Z,101833.20
2017-12-20T03:15:10.907Z,101834.50
2017-12-20T03:16:16.312Z,101831.90
2017-12-20T03:17:22.045Z,101827.56
2017-12-20T03:18:27.808Z,101823.70
2017-12-20T03:19:33.563Z,101823.70
2017-12-20T03:20:39.322Z,101818.97
2017-12-20T03:21:45.053Z,101820.32
2017-12-20T03:22:50.476Z,101822.53
2017-12-20T03:23:56.226Z,101827.74
2017-12-20T03:25:01.960Z,101829.52
2017-12-20T03:26:07.711Z,101826.53
2017-12-20T03:27:13.468Z,101824.83
2017-12-20T03:28:19.207Z,101828.77
2017-12-20T03:29:24.952Z,101826.61
2017-12-20T03:30:30.696Z,101823.61
2017-12-20T03:31:36.470Z,101828.42
2017-12-20T03:32:43.197Z,101827.15
2017-12-20T03:33:48.921Z,101832.79
2017-12-20T03:34:54.652Z,101831.06
2017-12-20T03:36:00.395Z,101827.19
2017-12-20T03:37:06.170Z,101832.39
2017-12-20T03:38:11.589Z,101833.70
2017-12-20T03:39:17.317Z,101842.41
2017-12-20T03:40:23.040Z,101841.09
2017-12-20T03:41:28.787Z,101838.03
2017-12-20T03:42:34.545Z,101838.90
2017-12-20T03:43:40.284Z,101835.83
2017-12-20T03:44:46.031Z,101833.66
2017-12-20T03:45:51.463Z,101830.63
2017-12-20T03:46:57.011Z,101834.96
2017-12-20T03:48:02.768Z,101841.91
2017-12-20T03:49:09.281Z,101846.23
2017-12-20T03:50:14.357Z,101848.81
2017-12-20T03:51:20.520Z,101847.94
2017-12-20T03:52:26.384Z,101848.38
2017-12-20T03:53:31.481Z,101837.53
2017-12-20T03:54:37.320Z,101840.53
2017-12-20T03:55:42.411Z,101841.40
2017-12-20T03:56:48.149Z,101838.36
2017-12-20T03:57:53.882Z,101832.72
2017-12-20T03:58:59.655Z,101835.72
2017-12-20T04:00:05.386Z,101825.30
2017-12-20T04:01:11.331Z,101826.13
2017-12-20T04:02:17.942Z,101820.45
2017-12-20T04:03:24.234Z,101820.45
2017-12-20T04:04:30.059Z,101821.79
2017-12-20T04:05:35.919Z,101815.72
2017-12-20T04:06:41.649Z,101817.89
2017-12-20T04:07:47.377Z,101818.75
2017-12-20T04:08:53.225Z,101818.76
2017-12-20T04:09:59.156Z,101816.12
2017-12-20T04:11:04.949Z,101811.34
2017-12-20T04:12:10.820Z,101813.94
2017-12-20T04:13:17.333Z,101817.84
2017-12-20T04:14:23.084Z,101814.38
2017-12-20T04:15:28.867Z,101820.05
2017-12-20T04:16:35.375Z,101815.25
2017-12-20T04:17:41.109Z,101824.40
2017-12-20T04:18:46.878Z,101819.19
2017-12-20T04:19:52.609Z,101825.23
2017-12-20T04:20:58.400Z,101823.09
2017-12-20T04:22:04.138Z,101825.70
2017-12-20T04:23:10.639Z,101821.80
2017-12-20T04:24:16.415Z,101822.66
2017-12-20T04:25:21.859Z,101817.02
2017-12-20T04:26:28.406Z,101811.34
2017-12-20T04:27:34.133Z,101817.84
2017-12-20T04:28:39.883Z,101821.75
2017-12-20T04:29:45.640Z,101820.88
2017-12-20T04:30:52.140Z,101824.79
2017-12-20T04:31:57.928Z,101831.30
2017-12-20T04:33:03.691Z,101829.52
2017-12-20T04:34:10.193Z,101824.27
2017-12-20T04:35:15.921Z,101826.87
2017-12-20T04:36:21.671Z,101825.13
2017-12-20T04:37:27.472Z,101821.19
2017-12-20T04:38:33.987Z,101820.76
2017-12-20T04:39:40.069Z,101826.40
2017-12-20T04:40:45.813Z,101828.18
2017-12-20T04:41:51.566Z,101825.58
2017-12-20T04:42:58.116Z,101818.24
2017-12-20T04:44:03.849Z,101819.15
2017-12-20T04:45:09.585Z,101816.11
2017-12-20T04:46:15.331Z,101826.96
2017-12-20T04:47:21.084Z,101819.15
2017-12-20T04:48:27.622Z,101821.31
2017-12-20T04:49:33.354Z,101821.75
2017-12-20T04:50:39.099Z,101826.52
2017-12-20T04:51:44.826Z,101826.92
2017-12-20T04:52:50.576Z,101827.78
2017-12-20T04:53:56.349Z,101826.52
2017-12-20T04:55:02.870Z,101823.53
2017-12-20T04:56:08.633Z,101827.44
2017-12-20T04:57:14.405Z,101827.91
2017-12-20T04:58:20.900Z,101825.73
2017-12-20T04:59:26.732Z,101827.04
2017-12-20T05:00:33.402Z,101827.47
2017-12-20T05:01:39.155Z,101826.17
2017-12-20T05:02:44.886Z,101831.81
2017-12-20T05:03:50.640Z,101827.04
2017-12-20T05:04:56.409Z,101823.09
2017-12-20T05:06:02.158Z,101826.13
2017-12-20T05:07:07.892Z,101823.13
2017-12-20T05:08:13.623Z,101826.61
2017-12-20T05:09:19.397Z,101830.55
2017-12-20T05:10:25.939Z,101830.15
2017-12-20T05:11:31.696Z,101830.63
2017-12-20T05:12:37.428Z,101830.66
2017-12-20T05:13:43.928Z,101832.36
2017-12-20T05:14:49.660Z,101834.13
2017-12-20T05:15:55.440Z,101835.03
2017-12-20T05:17:01.174Z,101838.06
2017-12-20T05:18:06.961Z,101834.59
2017-12-20T05:19:13.456Z,101828.52
2017-12-20T05:20:19.199Z,101822.89
2017-12-20T05:21:24.963Z,101825.09
2017-12-20T05:22:30.717Z,101822.48
2017-12-20T05:23:36.445Z,101827.29
2017-12-20T05:24:42.194Z,101824.66
2017-12-20T05:25:47.928Z,101831.19
2017-12-20T05:26:53.722Z,101832.05
2017-12-20T05:27:59.467Z,101833.39
2017-12-20T05:29:05.232Z,101836.86
2017-12-20T05:30:10.981Z,101831.66
2017-12-20T05:31:16.726Z,101839.02
2017-12-20T05:32:22.626Z,101844.66
2017-12-20T05:33:29.155Z,101843.77
2017-12-20T05:34:35.960Z,101847.66
2017-12-20T05:35:43.280Z,101847.67
2017-12-20T05:36:49.116Z,101856.34
2017-12-20T05:37:54.882Z,101854.58
2017-12-20T05:39:00.635Z,101858.05
2017-12-20T05:40:07.873Z,101851.97
2017-12-20T05:41:13.608Z,101859.34
2017-12-20T05:42:19.348Z,101854.14
2017-12-20T05:43:25.136Z,101862.81
2017-12-20T05:44:30.866Z,101850.20
2017-12-20T05:45:36.605Z,101858.88
2017-12-20T05:46:42.336Z,101860.62
2017-12-20T05:47:48.083Z,101858.48
2017-12-20T05:48:53.850Z,101866.69
2017-12-20T05:50:00.354Z,101859.28
2017-12-20T05:51:06.088Z,101866.66
2017-12-20T05:52:11.829Z,101860.13
2017-12-20T05:53:17.600Z,101859.69
2017-12-20T05:54:23.413Z,101855.78
2017-12-20T05:55:29.171Z,101857.08
2017-12-20T05:56:34.902Z,101858.38
2017-12-20T05:57:40.628Z,101867.06
2017-12-20T05:58:46.395Z,101857.95
2017-12-20T05:59:52.181Z,101861.85
2017-12-20T06:00:58.684Z,101857.98
2017-12-20T06:02:04.421Z,101864.45
2017-12-20T06:03:10.176Z,101864.48
2017-12-20T06:04:16.154Z,101862.75
2017-12-20T06:05:21.938Z,101862.75
2017-12-20T06:06:27.673Z,101855.81
2017-12-20T06:07:33.409Z,101852.38
2017-12-20T06:08:39.932Z,101856.72
2017-12-20T06:09:45.679Z,101859.28
2017-12-20T06:10:52.218Z,101857.55
2017-12-20T06:11:58.024Z,101857.98
2017-12-20T06:13:03.695Z,101858.41
2017-12-20T06:14:09.453Z,101856.68
2017-12-20T06:15:15.212Z,101867.56
2017-12-20T06:16:20.996Z,101864.48
2017-12-20T06:17:26.768Z,101864.48
2017-12-20T06:18:32.523Z,101860.58
2017-12-20T06:19:38.260Z,101864.05
2017-12-20T06:20:44.026Z,101871.46
2017-12-20T06:21:50.570Z,101875.80
2017-12-20T06:22:56.319Z,101867.98
2017-12-20T06:24:02.055Z,101862.78
2017-12-20T06:25:07.855Z,101870.19
2017-12-20T06:26:13.584Z,101871.02
2017-12-20T06:27:19.338Z,101875.36
2017-12-20T06:28:25.078Z,101867.98
2017-12-20T06:29:30.813Z,101875.80
2017-12-20T06:30:36.567Z,101873.63
2017-12-20T06:31:42.320Z,101875.83
2017-12-20T06:32:48.080Z,101875.80
2017-12-20T06:33:53.644Z,101875.80
2017-12-20T06:35:00.207Z,101883.57
2017-12-20T06:36:06.704Z,101877.94
2017-12-20T06:37:12.480Z,101891.37
2017-12-20T06:38:18.312Z,101890.52
2017-12-20T06:39:24.069Z,101890.08
2017-12-20T06:40:30.060Z,101893.98
2017-12-20T06:41:35.840Z,101891.81
2017-12-20T06:42:41.586Z,101893.55
2017-12-20T06:43:47.363Z,101902.62
2017-12-20T06:44:53.874Z,101898.29
2017-12-20T06:45:59.614Z,101895.69
2017-12-20T06:47:05.372Z,101901.30
2017-12-20T06:48:11.164Z,101896.95
2017-12-20T06:49:16.950Z,101903.00
2017-12-20T06:50:22.705Z,101892.16
2017-12-20T06:51:29.216Z,101894.75
2017-12-20T06:52:34.964Z,101892.98
2017-12-20T06:53:40.724Z,101890.82
2017-12-20T06:54:46.496Z,101897.33
2017-12-20T06:55:52.245Z,101897.77
2017-12-20T06:56:58.764Z,101899.93
2017-12-20T06:58:04.503Z,101899.93
2017-12-20T06:59:10.320Z,101900.80
2017-12-20T07:00:16.102Z,101899.50
2017-12-20T07:01:21.859Z,101901.23
2017-12-20T07:02:27.594Z,101902.53
2017-12-20T07:03:33.352Z,101903.41
2017-12-20T07:04:39.092Z,101901.70
2017-12-20T07:05:45.672Z,101902.97
2017-12-20T07:06:51.418Z,101898.19
2017-12-20T07:07:58.648Z,101896.89
2017-12-20T07:09:03.724Z,101900.33
2017-12-20T07:10:09.492Z,101903.80
2017-12-20T07:11:15.287Z,101904.70
2017-12-20T07:12:21.045Z,101899.93
2017-12-20T07:13:26.899Z,101904.30
2017-12-20T07:14:32.658Z,101905.17
2017-12-20T07:15:38.407Z,101911.24
2017-12-20T07:16:44.188Z,101909.97
2017-12-20T07:17:49.921Z,101910.81
2017-12-20T07:18:55.674Z,101909.08
2017-12-20T07:20:01.435Z,101906.47
2017-12-20T07:21:07.955Z,101912.55
2017-12-20T07:22:13.722Z,101922.52
2017-12-20T07:23:19.482Z,101916.02
2017-12-20T07:24:25.242Z,101922.52
2017-12-20T07:25:31.758Z,101920.36
2017-12-20T07:26:37.554Z,101921.66
2017-12-20T07:27:43.327Z,101918.19
2017-12-20T07:28:49.054Z,101919.05
2017-12-20T07:29:54.794Z,101923.39
2017-12-20T07:31:00.555Z,101919.92
2017-12-20T07:32:06.301Z,101923.83
2017-12-20T07:33:12.075Z,101921.22
2017-12-20T07:34:17.800Z,101925.13
2017-12-20T07:35:23.221Z,101931.60
2017-12-20T07:36:28.953Z,101923.77
2017-12-20T07:37:34.708Z,101924.20
2017-12-20T07:38:40.510Z,101929.84
2017-12-20T07:39:46.304Z,101929.41
2017-12-20T07:40:52.060Z,101928.56
2017-12-20T07:41:58.595Z,101931.57
2017-12-20T07:43:04.361Z,101931.14
2017-12-20T07:44:10.952Z,101930.67
2017-12-20T07:45:16.704Z,101933.71
2017-12-20T07:46:22.476Z,101924.56
2017-12-20T07:47:28.234Z,101927.56
2017-12-20T07:48:33.992Z,101929.27
2017-12-20T07:49:40.563Z,101930.09
2017-12-20T07:50:46.328Z,101933.57
2017-12-20T07:51:52.083Z,101931.80
2017-12-20T07:52:57.853Z,101933.53
2017-12-20T07:54:03.593Z,101940.91
2017-12-20T07:55:09.349Z,101940.08
2017-12-20T07:56:15.092Z,101940.52
2017-12-20T07:57:20.817Z,101939.22
2017-12-20T07:58:26.761Z,101947.06
2017-12-20T07:59:32.320Z,101945.30
2017-12-20T08:00:37.748Z,101948.33
2017-12-20T08:01:43.492Z,101953.50
2017-12-20T08:02:49.244Z,101941.78
2017-12-20T08:03:55.744Z,101955.64
2017-12-20T08:05:01.513Z,101951.26
2017-12-20T08:06:07.265Z,101954.30
2017-12-20T08:07:13.036Z,101949.52
2017-12-20T08:08:18.806Z,101951.73
2017-12-20T08:09:24.543Z,101954.30
2017-12-20T08:10:30.290Z,101954.30
2017-12-20T08:11:36.120Z,101963.89
2017-12-20T08:12:41.862Z,101957.81
2017-12-20T08:13:47.603Z,101954.80
2017-12-20T08:14:53.364Z,101958.72
2017-12-20T08:15:59.102Z,101960.88
2017-12-20T08:17:04.887Z,101956.98
2017-12-20T08:18:10.625Z,101957.84
2017-12-20T08:19:16.373Z,101960.88
2017-12-20T08:20:22.885Z,101966.53
2017-12-20T08:21:28.626Z,101969.97
2017-12-20T08:22:34.433Z,101965.59
2017-12-20T08:23:40.365Z,101967.28
2017-12-20T08:24:46.129Z,101967.25
2017-12-20T08:25:52.628Z,101972.81
2017-12-20T08:26:58.031Z,101973.20
2017-12-20T08:28:03.797Z,101976.21
2017-12-20T08:29:09.582Z,101972.69
2017-12-20T08:30:15.313Z,101968.78
2017-12-20T08:31:21.041Z,101969.65
2017-12-20T08:32:26.792Z,101968.30
2017-12-20T08:33:32.558Z,101970.52
2017-12-20T08:34:38.311Z,101969.64
2017-12-20T08:35:44.060Z,101965.69
2017-12-20T08:36:50.576Z,101967.83
2017-12-20T08:37:56.323Z,101968.69
2017-12-20T08:39:02.107Z,101969.51
2017-12-20T08:40:08.620Z,101967.25
2017-12-20T08:41:14.349Z,101974.62
2017-12-20T08:42:20.085Z,101966.77
2017-12-20T08:43:25.848Z,101967.62
2017-12-20T08:44:31.620Z,101965.84
2017-12-20T08:45:38.116Z,101971.48
2017-12-20T08:46:43.896Z,101969.27
2017-12-20T08:47:49.630Z,101970.95
2017-12-20T08:48:55.383Z,101966.59
2017-12-20T08:50:01.145Z,101974.81
2017-12-20T08:51:07.525Z,101970.45
2017-12-20T08:52:13.280Z,101970.02
2017-12-20T08:53:19.024Z,101966.48
2017-12-20T08:54:24.760Z,101969.48
2017-12-20T08:55:30.366Z,101972.52
2017-12-20T08:56:36.883Z,101969.37
2017-12-20T08:57:42.615Z,101970.68
2017-12-20T08:58:48.344Z,101968.02
2017-12-20T08:59:54.073Z,101962.73
2017-12-20T09:01:00.683Z,101964.02
2017-12-20T09:02:06.408Z,101969.56
2017-12-20T09:03:12.145Z,101966.02
2017-12-20T09:04:17.889Z,101970.73
2017-12-20T09:05:23.647Z,101966.27
2017-12-20T09:06:29.412Z,101963.59
2017-12-20T09:07:35.153Z,101962.63
2017-12-20T09:08:40.914Z,101969.47
2017-12-20T09:09:46.647Z,101964.66
2017-12-20T09:10:53.146Z,101967.66
2017-12-20T09:11:58.919Z,101963.69
2017-12-20T09:13:04.650Z,101964.85
2017-12-20T09:14:10.054Z,101969.43
2017-12-20T09:15:15.826Z,101964.32
2017-12-20T09:16:21.574Z,101969.70
2017-12-20T09:17:27.335Z,101966.25
2017-12-20T09:18:33.843Z,101968.14
2017-12-20T09:19:39.601Z,101964.55
2017-12-20T09:20:45.431Z,101968.80
2017-12-20T09:21:51.187Z,101973.89
2017-12-20T09:22:56.975Z,101976.02
2017-12-20T09:24:03.656Z,101972.36
2017-12-20T09:25:09.204Z,101979.21
2017-12-20T09:26:15.154Z,101980.09
2017-12-20T09:27:20.982Z,101978.87
2017-12-20T09:28:27.373Z,101972.72
2017-12-20T09:29:33.488Z,101970.24
2017-12-20T09:30:39.436Z,101974.66
2017-12-20T09:31:45.442Z,101974.30
2017-12-20T09:32:52.271Z,101967.88
2017-12-20T09:33:58.171Z,101971.54
2017-12-20T09:35:04.431Z,101975.13
2017-12-20T09:36:10.953Z,101968.13
2017-12-20T09:37:16.762Z,101975.63
2017-12-20T09:38:22.551Z,101976.10
2017-12-20T09:39:29.013Z,101975.39
2017-12-20T09:40:34.796Z,101976.75
2017-12-20T09:41:40.530Z,101971.65
2017-12-20T09:42:46.328Z,101972.15
2017-12-20T09:43:52.767Z,101978.34
2017-12-20T09:44:58.634Z,101970.09
2017-12-20T09:46:04.419Z,101971.91
2017-12-20T09:47:10.592Z,101971.95
2017-12-20T09:48:16.386Z,101972.34
2017-12-20T09:49:22.966Z,101967.53
2017-12-20T09:50:28.744Z,101967.98
2017-12-20T09:51:34.554Z,101970.16
2017-12-20T09:52:40.317Z,101970.61
2017-12-20T09:53:46.135Z,101965.47
2017-12-20T09:54:51.912Z,101966.41
2017-12-20T09:55:57.665Z,101968.59
2017-12-20T09:57:03.484Z,101965.02
2017-12-20T09:58:09.252Z,101964.85
2017-12-20T09:59:15.728Z,101962.11
2017-12-20T10:00:21.508Z,101963.26
2017-12-20T10:01:28.179Z,101963.09
2017-12-20T10:02:34.675Z,101961.61
2017-12-20T10:03:40.451Z,101959.24
2017-12-20T10:04:46.286Z,101960.79
2017-12-20T10:05:52.138Z,101961.98
2017-12-20T10:06:57.966Z,101953.95
2017-12-20T10:08:03.873Z,101950.45
2017-12-20T10:09:09.652Z,101954.81
2017-12-20T10:10:15.468Z,101956.09
2017-12-20T10:11:21.137Z,101952.98
2017-12-20T10:12:27.658Z,101951.97
2017-12-20T10:13:33.425Z,101945.61
2017-12-20T10:14:39.165Z,101943.13
2017-12-20T10:15:44.948Z,101945.48
2017-12-20T10:16:51.146Z,101947.27
2017-12-20T10:17:56.963Z,101947.78
2017-12-20T10:19:02.365Z,101951.80
2017-12-20T10:20:08.103Z,101951.82
2017-12-20T10:21:13.261Z,101956.52
2017-12-20T10:22:19.001Z,101954.50
2017-12-20T10:23:24.782Z,101958.00
2017-12-20T10:24:30.533Z,101952.34
2017-12-20T10:25:36.268Z,101958.96
2017-12-20T10:26:42.476Z,101954.63
2017-12-20T10:27:48.451Z,101950.34
2017-12-20T10:28:54.244Z,101950.51
2017-12-20T10:29:59.716Z,101944.50
2017-12-20T10:31:05.536Z,101948.43
2017-12-20T10:32:12.686Z,101951.91
2017-12-20T10:33:18.646Z,101954.55
2017-12-20T10:34:24.834Z,101953.21
2017-12-20T10:35:30.620Z,101954.91
2017-12-20T10:36:36.379Z,101949.28
2017-12-20T10:37:42.183Z,101948.78
2017-12-20T10:38:48.018Z,101945.99
2017-12-20T10:39:53.820Z,101948.52
2017-12-20T10:41:00.341Z,101941.86
2017-12-20T10:42:06.344Z,101940.47
2017-12-20T10:43:12.248Z,101939.95
2017-12-20T10:44:18.047Z,101948.78
2017-12-20T10:45:23.921Z,101943.25
2017-12-20T10:46:29.760Z,101942.48
2017-12-20T10:47:35.518Z,101942.41
2017-12-20T10:48:41.359Z,101941.44
2017-12-20T10:49:47.147Z,101937.61
2017-12-20T10:50:52.918Z,101938.11
2017-12-20T10:51:58.661Z,101943.30
2017-12-20T10:53:04.207Z,101941.18
2017-12-20T10:54:09.963Z,101943.28
2017-12-20T10:55:15.702Z,101947.98
2017-12-20T10:56:21.477Z,101938.80
2017-12-20T10:57:28.013Z,101937.51
2017-12-20T10:58:33.780Z,101940.56
2017-12-20T10:59:40.304Z,101928.80
2017-12-20T11:00:46.065Z,101935.84
2017-12-20T11:01:52.593Z,101930.21
2017-12-20T11:02:58.351Z,101925.95
2017-12-20T11:04:04.088Z,101929.95
2017-12-20T11:05:09.846Z,101926.56
2017-12-20T11:06:16.413Z,101921.91
2017-12-20T11:07:22.953Z,101922.47
2017-12-20T11:08:28.709Z,101923.78
2017-12-20T11:09:35.227Z,101920.72
2017-12-20T11:10:40.970Z,101922.14
2017-12-20T11:11:46.732Z,101917.91
2017-12-20T11:12:52.520Z,101925.08
2017-12-20T11:13:58.013Z,101922.92
2017-12-20T11:15:03.769Z,101923.77
2017-12-20T11:16:09.191Z,101920.22
2017-12-20T11:17:14.942Z,101920.17
2017-12-20T11:18:21.284Z,101923.17
2017-12-20T11:19:27.102Z,101921.33
2017-12-20T11:20:32.317Z,101918.27
2017-12-20T11:21:38.707Z,101919.13
2017-12-20T11:22:43.802Z,101917.81
2017-12-20T11:23:49.380Z,101919.41
2017-12-20T11:24:55.147Z,101915.56
2017-12-20T11:26:01.340Z,101915.65
2017-12-20T11:27:06.446Z,101915.64
2017-12-20T11:28:11.541Z,101911.56
2017-12-20T11:29:18.068Z,101913.64
2017-12-20T11:30:23.952Z,101912.84
2017-12-20T11:31:30.199Z,101914.66
2017-12-20T11:32:37.003Z,101912.58
2017-12-20T11:33:42.766Z,101915.66
2017-12-20T11:34:48.541Z,101912.25
2017-12-20T11:35:54.340Z,101920.36
2017-12-20T11:37:01.142Z,101923.31
2017-12-20T11:38:07.680Z,101914.49
2017-12-20T11:39:14.636Z,101917.18
2017-12-20T11:40:20.554Z,101915.53
2017-12-20T11:41:26.527Z,101912.71
2017-12-20T11:42:32.494Z,101909.72
2017-12-20T11:43:38.339Z,101920.33
2017-12-20T11:44:44.111Z,101915.98
2017-12-20T11:45:50.633Z,101915.92
2017-12-20T11:46:56.408Z,101912.13
2017-12-20T11:48:02.936Z,101912.17
2017-12-20T11:49:08.680Z,101919.16
2017-12-20T11:50:14.411Z,101916.06
2017-12-20T11:51:20.173Z,101913.45
2017-12-20T11:52:25.922Z,101913.49
2017-12-20T11:53:31.696Z,101916.64
2017-12-20T11:54:37.431Z,101911.48
2017-12-20T11:55:43.953Z,101908.36
2017-12-20T11:56:49.716Z,101914.52
2017-12-20T11:57:55.443Z,101913.12
2017-12-20T11:59:01.195Z,101912.62
2017-12-20T12:00:06.883Z,101915.22
2017-12-20T12:01:12.784Z,101917.48
2017-12-20T12:02:19.334Z,101912.86
2017-12-20T12:03:25.875Z,101908.06
2017-12-20T12:04:31.622Z,101911.92
2017-12-20T12:05:38.147Z,101904.66
2017-12-20T12:06:43.967Z,101907.72
2017-12-20T12:07:49.773Z,101907.84
2017-12-20T12:08:55.512Z,101909.68
2017-12-20T12:10:01.275Z,101911.81
2017-12-20T12:11:07.787Z,101908.25
2017-12-20T12:12:13.565Z,101906.45
2017-12-20T12:13:19.357Z,101911.41
2017-12-20T12:14:25.097Z,101910.59
2017-12-20T12:15:30.853Z,101914.96
2017-12-20T12:16:36.727Z,101913.30
2017-12-20T12:17:42.489Z,101916.80
2017-12-20T12:18:49.017Z,101910.25
2017-12-20T12:19:54.757Z,101915.91
2017-12-20T12:21:00.507Z,101913.70
2017-12-20T12:22:06.263Z,101914.62
2017-12-20T12:23:12.791Z,101912.47
2017-12-20T12:24:18.552Z,101916.39
2017-12-20T12:25:25.061Z,101917.75
2017-12-20T12:26:31.679Z,101921.17
2017-12-20T12:27:38.206Z,101921.17
2017-12-20T12:28:43.969Z,101919.05
2017-12-20T12:29:50.546Z,101923.00
2017-12-20T12:30:56.063Z,101927.34